createdAt,value
2019-03-05T00:03:36.579Z,97.90
2019-03-05T00:06:10.660Z,97.80
2019-03-05T00:08:44.698Z,97.60
2019-03-05T00:11:18.736Z,97.70
2019-03-05T00:13:53.031Z,97.90
2019-03-05T00:16:26.640Z,97.70
2019-03-05T00:19:01.449Z,97.60
2019-03-05T00:21:35.019Z,98.30
2019-03-05T00:24:45.838Z,98.10
2019-03-05T00:27:19.825Z,97.80
2019-03-05T00:30:11.335Z,97.60
2019-03-05T00:32:45.442Z,97.60
2019-03-05T00:35:33.867Z,97.60
2019-03-05T00:38:11.800Z,97.50
2019-03-05T00:41:06.927Z,97.50
2019-03-05T00:59:56.754Z,97.30
2019-03-05T01:02:53.104Z,97.10
2019-03-05T01:05:43.690Z,97.00
2019-03-05T01:08:20.070Z,97.00
2019-03-05T01:10:54.352Z,97.10
2019-03-05T01:13:31.137Z,97.00
2019-03-05T01:16:05.777Z,96.90
2019-03-05T01:18:41.023Z,96.90
2019-03-05T01:21:16.499Z,96.90
2019-03-05T01:23:50.716Z,96.90
2019-03-05T01:26:26.756Z,96.80
2019-03-05T01:29:00.483Z,96.70
2019-03-05T01:31:42.442Z,96.70
2019-03-05T01:34:24.182Z,96.60
2019-03-05T01:37:05.098Z,96.50
2019-03-05T01:39:39.311Z,96.40
2019-03-05T01:42:13.110Z,96.30
2019-03-05T01:44:46.542Z,96.30
2019-03-05T01:47:21.883Z,96.20
2019-03-05T01:49:54.818Z,96.10
2019-03-05T01:52:28.566Z,96.10
2019-03-05T01:55:05.813Z,96.50
2019-03-05T01:57:54.875Z,96.00
2019-03-05T02:00:28.121Z,96.30
2019-03-05T02:03:02.542Z,96.00
2019-03-05T02:05:36.257Z,95.90
2019-03-05T02:08:17.531Z,96.00
2019-03-05T02:10:52.349Z,95.80
2019-03-05T02:13:28.685Z,95.80
2019-03-05T02:16:00.745Z,95.90
2019-03-05T02:18:33.994Z,95.70
2019-03-05T02:21:08.284Z,95.70
2019-03-05T02:24:08.147Z,95.50
2019-03-05T02:26:55.212Z,95.50
2019-03-05T02:29:43.751Z,95.50
2019-03-05T02:32:31.316Z,95.50
2019-03-05T02:35:15.529Z,95.30
2019-03-05T02:38:05.309Z,95.30
2019-03-05T02:40:56.575Z,94.40
2019-03-05T02:43:42.550Z,94.10
2019-03-05T02:46:18.222Z,94.50
2019-03-05T02:49:13.797Z,94.60
2019-03-05T02:51:56.446Z,94.50
2019-03-05T02:54:51.764Z,94.70
2019-03-05T02:57:23.264Z,94.50
2019-03-05T02:59:58.653Z,94.40
2019-03-05T03:02:33.522Z,94.10
2019-03-05T03:05:24.487Z,94.40
2019-03-05T03:07:59.521Z,94.30
2019-03-05T03:10:34.874Z,94.00
2019-03-05T03:13:09.095Z,93.50
2019-03-05T03:15:42.365Z,94.10
2019-03-05T03:18:15.804Z,92.40
2019-03-05T03:20:50.219Z,92.60
2019-03-05T03:23:24.313Z,92.70
2019-03-05T03:26:00.443Z,92.00
2019-03-05T03:28:33.619Z,93.50
2019-03-05T03:31:06.670Z,93.80
2019-03-05T03:33:40.059Z,93.50
2019-03-05T03:36:16.647Z,93.40
2019-03-05T03:38:50.078Z,93.40
2019-03-05T03:41:25.173Z,93.60
2019-03-05T03:44:00.417Z,93.40
2019-03-05T03:46:33.015Z,93.20
2019-03-05T03:49:07.047Z,92.90
2019-03-05T03:51:40.620Z,93.10
2019-03-05T03:54:14.582Z,92.70
2019-03-05T03:56:51.303Z,93.20
2019-03-05T03:59:36.809Z,93.30
2019-03-05T04:02:16.891Z,93.50
2019-03-05T04:04:54.504Z,93.30
2019-03-05T04:07:27.206Z,93.20
2019-03-05T04:10:03.559Z,93.20
2019-03-05T04:12:36.929Z,92.00
2019-03-05T04:15:15.502Z,91.70
2019-03-05T04:17:48.585Z,92.40
2019-03-05T04:20:25.808Z,92.70
2019-03-05T04:23:02.506Z,92.80
2019-03-05T04:25:36.469Z,93.20
2019-03-05T04:28:09.981Z,93.10
2019-03-05T04:30:43.757Z,92.80
2019-03-05T04:33:20.995Z,92.50
2019-03-05T04:35:53.965Z,92.70
2019-03-05T04:38:30.281Z,92.50
2019-03-05T04:41:06.669Z,92.50
2019-03-05T04:43:40.628Z,92.60
2019-03-05T04:46:43.759Z,92.40
2019-03-05T04:49:28.330Z,92.30
2019-03-05T04:52:03.909Z,90.60
2019-03-05T04:54:37.403Z,92.30
2019-03-05T04:57:11.043Z,92.00
2019-03-05T04:59:44.996Z,90.60
2019-03-05T05:02:18.540Z,91.80
2019-03-05T05:04:51.910Z,91.80
2019-03-05T05:07:28.421Z,91.90
2019-03-05T05:10:04.687Z,91.60
2019-03-05T05:12:39.863Z,91.40
2019-03-05T05:15:32.667Z,91.20
2019-03-05T05:18:06.466Z,91.20
2019-03-05T05:20:40.364Z,90.20
2019-03-05T05:23:16.538Z,90.70
2019-03-05T05:25:49.348Z,90.70
2019-03-05T05:28:23.052Z,90.40
2019-03-05T05:30:57.030Z,88.70
2019-03-05T05:33:30.482Z,83.10
2019-03-05T05:36:04.099Z,87.80
2019-03-05T05:38:37.866Z,85.00
2019-03-05T05:41:11.416Z,85.20
2019-03-05T05:43:44.881Z,79.20
2019-03-05T05:46:18.600Z,77.20
2019-03-05T05:48:52.713Z,85.50
2019-03-05T05:51:26.864Z,86.70
2019-03-05T05:54:00.461Z,89.00
2019-03-05T05:56:34.245Z,84.00
2019-03-05T05:59:07.328Z,88.90
2019-03-05T06:01:41.257Z,86.00
2019-03-05T06:04:14.668Z,84.90
2019-03-05T06:06:48.117Z,79.50
2019-03-05T06:09:21.879Z,84.90
2019-03-05T06:11:55.923Z,77.50
2019-03-05T06:14:29.415Z,84.60
2019-03-05T06:17:05.845Z,77.00
2019-03-05T06:19:38.918Z,84.00
2019-03-05T06:22:12.449Z,78.90
2019-03-05T06:24:45.955Z,80.20
2019-03-05T06:27:23.087Z,70.90
2019-03-05T06:29:57.213Z,74.50
2019-03-05T06:32:30.668Z,76.70
2019-03-05T06:35:03.976Z,70.40
2019-03-05T06:37:38.386Z,70.10
2019-03-05T06:40:16.500Z,78.70
2019-03-05T06:42:51.539Z,72.80
2019-03-05T06:45:41.837Z,80.10
2019-03-05T06:48:26.848Z,82.30
2019-03-05T06:51:01.819Z,73.20
2019-03-05T06:53:40.182Z,79.50
2019-03-05T06:56:17.671Z,79.40
2019-03-05T06:58:52.076Z,75.10
2019-03-05T07:01:26.155Z,80.20
2019-03-05T07:04:00.546Z,76.40
2019-03-05T07:06:54.901Z,64.00
2019-03-05T07:09:45.351Z,64.00
2019-03-05T07:12:21.239Z,64.20
2019-03-05T07:15:25.989Z,66.00
2019-03-05T07:18:03.884Z,66.90
2019-03-05T07:20:49.475Z,75.80
2019-03-05T07:23:46.971Z,75.30
2019-03-05T07:26:20.923Z,65.70
2019-03-05T07:28:54.133Z,68.20
2019-03-05T07:31:27.639Z,68.80
2019-03-05T07:34:00.767Z,69.20
2019-03-05T07:36:34.427Z,76.20
2019-03-05T07:39:10.727Z,68.20
2019-03-05T07:41:44.614Z,76.10
2019-03-05T07:44:17.655Z,69.90
2019-03-05T07:46:51.016Z,65.40
2019-03-05T07:49:24.452Z,65.30
2019-03-05T07:51:58.875Z,73.50
2019-03-05T07:54:32.088Z,74.90
2019-03-05T07:57:05.927Z,72.20
2019-03-05T07:59:39.222Z,76.80
2019-03-05T08:02:16.029Z,70.50
2019-03-05T08:04:49.840Z,66.80
2019-03-05T08:07:23.354Z,66.60
2019-03-05T08:09:57.677Z,71.70
2019-03-05T08:12:33.672Z,73.40
2019-03-05T08:15:18.598Z,75.10
2019-03-05T08:17:52.501Z,71.30
2019-03-05T08:20:27.172Z,71.40
2019-03-05T08:23:00.973Z,72.90
2019-03-05T08:25:35.282Z,74.00
2019-03-05T08:28:09.671Z,73.40
2019-03-05T08:30:44.268Z,73.90
2019-03-05T08:33:18.792Z,76.90
2019-03-05T08:35:52.148Z,75.40
2019-03-05T08:38:25.688Z,78.40
2019-03-05T08:40:58.782Z,79.70
2019-03-05T08:43:32.198Z,76.10
2019-03-05T08:46:05.811Z,80.10
2019-03-05T08:48:40.385Z,76.90
2019-03-05T08:51:13.692Z,77.40
2019-03-05T08:53:49.946Z,81.40
2019-03-05T08:56:26.407Z,78.70
2019-03-05T08:59:03.532Z,79.20
2019-03-05T09:01:36.547Z,79.20
2019-03-05T09:04:10.199Z,81.50
2019-03-05T09:06:44.288Z,82.30
2019-03-05T09:09:18.587Z,83.70
2019-03-05T09:11:51.918Z,83.60
2019-03-05T09:14:25.438Z,82.70
2019-03-05T09:16:59.037Z,84.40
2019-03-05T09:19:37.062Z,84.30
2019-03-05T09:22:10.421Z,83.30
2019-03-05T09:24:47.250Z,84.90
2019-03-05T09:27:24.097Z,83.10
2019-03-05T09:29:58.284Z,83.40
2019-03-05T09:32:35.516Z,83.60
2019-03-05T09:35:13.253Z,84.80
2019-03-05T09:37:47.992Z,85.30
2019-03-05T09:40:26.499Z,86.70
2019-03-05T09:43:00.038Z,86.60
2019-03-05T09:45:34.134Z,87.10
2019-03-05T09:48:13.595Z,85.70
2019-03-05T09:50:55.026Z,87.50
2019-03-05T09:53:28.464Z,87.30
2019-03-05T09:56:06.509Z,87.90
2019-03-05T09:58:44.489Z,88.30
2019-03-05T10:01:24.848Z,88.60
2019-03-05T10:04:26.067Z,89.00
2019-03-05T10:06:41.501Z,89.30
2019-03-05T10:09:16.303Z,89.80
2019-03-05T10:11:56.702Z,90.00
2019-03-05T10:14:51.600Z,90.00
2019-03-05T10:17:40.109Z,90.10
2019-03-05T10:20:25.139Z,90.20
2019-03-05T10:23:11.075Z,90.30
2019-03-05T10:25:56.525Z,90.60
2019-03-05T10:28:30.408Z,90.70
2019-03-05T10:31:04.497Z,90.90
2019-03-05T10:33:38.441Z,91.00
2019-03-05T10:36:11.971Z,91.10
2019-03-05T10:38:56.576Z,91.30
2019-03-05T10:41:21.067Z,91.10
2019-03-05T10:46:49.435Z,91.00
2019-03-05T10:49:24.734Z,91.10
2019-03-05T10:51:58.967Z,91.00
2019-03-05T10:54:32.366Z,91.60
2019-03-05T10:57:09.318Z,91.60
2019-03-05T10:59:42.552Z,91.30
2019-03-05T11:02:20.772Z,91.90
2019-03-05T11:04:54.389Z,91.90
2019-03-05T11:11:34.807Z,91.30
2019-03-05T11:14:13.303Z,91.70
2019-03-05T11:16:49.903Z,92.00
2019-03-05T11:19:22.842Z,91.60
2019-03-05T11:21:57.142Z,92.50
2019-03-05T11:24:53.396Z,92.60
2019-03-05T11:27:37.994Z,91.50
2019-03-05T11:30:36.039Z,91.60
2019-03-05T11:33:03.916Z,91.60
2019-03-05T11:39:14.141Z,92.50
2019-03-05T11:41:48.148Z,92.50
2019-03-05T11:44:33.637Z,92.10
2019-03-05T11:47:06.236Z,91.90
2019-03-05T11:49:43.918Z,92.20
2019-03-05T11:52:18.866Z,92.30
2019-03-05T11:54:52.627Z,92.10
2019-03-05T11:57:26.668Z,92.30
2019-03-05T12:00:00.446Z,92.30
2019-03-05T12:02:34.369Z,92.20
2019-03-05T12:05:13.011Z,94.00
2019-03-05T12:07:50.401Z,93.70
2019-03-05T12:10:29.232Z,93.00
2019-03-05T12:13:03.196Z,93.40
2019-03-05T12:15:38.855Z,92.50
2019-03-05T12:18:21.553Z,92.40
2019-03-05T12:20:56.132Z,92.40
2019-03-05T12:23:46.724Z,92.60
2019-03-05T12:26:21.162Z,93.50
2019-03-05T12:28:54.285Z,92.50
2019-03-05T12:31:31.921Z,92.70
2019-03-05T12:34:05.244Z,92.70
2019-03-05T12:36:38.703Z,92.80
2019-03-05T12:39:13.986Z,92.70
2019-03-05T12:41:47.531Z,92.70
2019-03-05T12:44:20.760Z,93.50
2019-03-05T12:46:54.726Z,93.30
2019-03-05T12:49:28.534Z,93.10
2019-03-05T12:52:04.834Z,93.00
2019-03-05T12:54:51.779Z,93.00
2019-03-05T12:57:25.349Z,94.30
2019-03-05T12:59:59.408Z,93.60
2019-03-05T13:02:33.091Z,93.30
2019-03-05T13:05:10.223Z,93.20
2019-03-05T13:07:44.823Z,93.30
2019-03-05T13:10:22.177Z,93.30
2019-03-05T13:12:56.601Z,94.00
2019-03-05T13:15:43.168Z,94.00
2019-03-05T13:18:17.515Z,93.60
2019-03-05T13:20:51.788Z,93.60
2019-03-05T13:23:26.151Z,93.70
2019-03-05T13:26:03.182Z,94.10
2019-03-05T13:28:36.787Z,94.20
2019-03-05T13:31:13.294Z,94.40
2019-03-05T13:33:47.280Z,94.50
2019-03-05T13:36:21.092Z,94.50
2019-03-05T13:38:54.846Z,94.80
2019-03-05T13:41:28.416Z,95.10
2019-03-05T13:44:01.911Z,95.00
2019-03-05T13:46:35.611Z,95.30
2019-03-05T13:49:19.876Z,95.50
2019-03-05T13:51:56.127Z,95.90
2019-03-05T13:54:38.834Z,95.70
2019-03-05T13:57:39.579Z,96.30
2019-03-05T14:00:13.817Z,95.90
2019-03-05T14:03:07.963Z,96.20
2019-03-05T14:06:10.419Z,96.40
2019-03-05T14:08:55.310Z,96.10
2019-03-05T14:11:30.633Z,95.90
2019-03-05T14:14:06.747Z,96.20
2019-03-05T14:16:40.605Z,96.30
2019-03-05T14:19:14.323Z,96.20
2019-03-05T14:21:48.203Z,95.20
2019-03-05T14:24:25.279Z,96.50
2019-03-05T14:27:00.051Z,96.40
2019-03-05T14:29:34.483Z,96.90
2019-03-05T14:32:09.029Z,97.00
2019-03-05T14:34:44.761Z,96.60
2019-03-05T14:37:18.764Z,96.90
2019-03-05T14:39:52.742Z,96.80
2019-03-05T14:42:31.667Z,96.50
2019-03-05T14:45:05.365Z,97.20
2019-03-05T14:51:01.703Z,97.20
2019-03-05T14:53:35.960Z,96.70
2019-03-05T14:56:13.235Z,96.90
2019-03-05T14:58:47.985Z,97.40
2019-03-05T15:01:21.265Z,97.50
2019-03-05T15:03:55.069Z,97.40
2019-03-05T15:06:28.121Z,97.40
2019-03-05T15:09:05.906Z,97.20
2019-03-05T15:11:43.398Z,97.50
2019-03-05T15:14:20.493Z,97.50
2019-03-05T15:16:56.049Z,97.30
2019-03-05T15:19:34.479Z,97.50
2019-03-05T15:22:06.522Z,97.60
2019-03-05T15:24:41.355Z,97.80
2019-03-05T15:27:20.023Z,97.50
2019-03-05T15:29:53.029Z,97.80
2019-03-05T15:32:27.214Z,97.70
2019-03-05T15:35:00.725Z,97.70
2019-03-05T15:37:37.357Z,97.90
2019-03-05T15:40:23.317Z,97.90
2019-03-05T15:42:59.499Z,97.70
2019-03-05T15:46:00.155Z,97.70
2019-03-05T15:48:50.241Z,96.90
2019-03-05T15:51:24.144Z,97.90
2019-03-05T15:53:58.248Z,98.10
2019-03-05T15:56:34.892Z,98.10
2019-03-05T15:59:24.326Z,98.00
2019-03-05T16:02:30.405Z,98.00
2019-03-05T16:05:20.786Z,98.10
2019-03-05T16:10:38.809Z,97.90
2019-03-05T16:13:15.354Z,97.80
2019-03-05T16:15:47.786Z,97.90
2019-03-05T16:18:30.312Z,97.60
2019-03-05T16:24:04.670Z,97.80
2019-03-05T16:26:38.659Z,97.60
2019-03-05T16:29:16.168Z,97.80
2019-03-05T16:32:08.710Z,97.70
2019-03-05T16:34:45.802Z,97.60
2019-03-05T16:37:35.118Z,97.50
2019-03-05T16:40:19.904Z,97.70
2019-03-05T16:43:05.463Z,97.70
2019-03-05T16:45:42.799Z,97.50
2019-03-05T16:48:21.872Z,97.60
2019-03-05T16:50:59.635Z,97.70
2019-03-05T16:53:49.436Z,97.30
2019-03-05T16:56:39.673Z,97.60
2019-03-05T16:59:13.989Z,97.60
2019-03-05T17:02:23.653Z,97.70
2019-03-05T17:05:06.867Z,97.50
2019-03-05T17:10:44.110Z,97.50
2019-03-05T17:16:57.139Z,97.70
2019-03-05T17:19:23.341Z,97.60
2019-03-05T17:22:12.277Z,97.50
2019-03-05T17:24:55.773Z,97.60
2019-03-05T17:27:33.443Z,97.70
2019-03-05T17:30:16.783Z,97.10
2019-03-05T17:36:03.590Z,97.50
2019-03-05T17:38:37.354Z,97.50
2019-03-05T17:41:11.847Z,97.50
2019-03-05T17:43:45.075Z,97.60
2019-03-05T17:46:26.955Z,97.70
2019-03-05T17:49:00.748Z,97.60
2019-03-05T17:51:51.953Z,97.60
2019-03-05T17:54:27.693Z,97.40
2019-03-05T17:57:01.414Z,97.40
2019-03-05T17:59:35.625Z,97.30
2019-03-05T18:02:09.461Z,97.40
2019-03-05T18:04:53.478Z,97.40
2019-03-05T18:07:23.345Z,97.30
2019-03-05T18:09:57.681Z,97.30
2019-03-05T18:12:30.966Z,97.30
2019-03-05T18:15:05.033Z,97.30
2019-03-05T18:17:39.816Z,97.20
2019-03-05T18:20:18.405Z,97.30
2019-03-05T18:22:53.158Z,97.40
2019-03-05T18:25:27.275Z,97.40
2019-03-05T18:28:01.247Z,97.40
2019-03-05T18:30:35.017Z,97.40
2019-03-05T18:33:09.123Z,97.30
2019-03-05T18:35:43.083Z,97.40
2019-03-05T18:38:17.793Z,97.30
2019-03-05T18:40:52.060Z,97.30
2019-03-05T18:43:25.563Z,97.20
2019-03-05T18:45:59.379Z,97.30
2019-03-05T18:48:32.977Z,97.30
2019-03-05T18:51:06.641Z,97.40
2019-03-05T18:53:40.020Z,97.30
2019-03-05T18:56:13.719Z,97.30
2019-03-05T18:58:47.020Z,97.20
2019-03-05T19:01:20.846Z,97.30
2019-03-05T19:03:54.128Z,97.20
2019-03-05T19:06:28.366Z,97.30
2019-03-05T19:09:02.153Z,97.20
2019-03-05T19:11:37.411Z,97.20
2019-03-05T19:14:11.286Z,97.30
2019-03-05T19:16:44.978Z,97.40
2019-03-05T19:19:18.415Z,97.30
2019-03-05T19:21:52.430Z,97.30
2019-03-05T19:24:26.262Z,97.30
2019-03-05T19:27:00.472Z,97.40
2019-03-05T19:29:34.411Z,97.30
2019-03-05T19:32:08.111Z,97.30
2019-03-05T19:34:41.732Z,97.30
2019-03-05T19:37:15.413Z,97.30
2019-03-05T19:39:50.512Z,97.40
2019-03-05T19:42:24.326Z,97.40
2019-03-05T19:44:57.855Z,97.30
2019-03-05T19:47:32.218Z,97.30
2019-03-05T19:50:05.830Z,97.40
2019-03-05T19:52:39.897Z,97.30
2019-03-05T19:55:15.342Z,97.30
2019-03-05T19:57:49.205Z,97.30
2019-03-05T20:00:27.964Z,97.40
2019-03-05T20:03:02.269Z,97.20
2019-03-05T20:05:37.039Z,97.10
2019-03-05T20:08:10.918Z,97.30
2019-03-05T20:10:45.052Z,97.30
2019-03-05T20:13:19.118Z,97.40
2019-03-05T20:15:53.036Z,97.40
2019-03-05T20:18:26.892Z,97.40
2019-03-05T20:21:00.638Z,97.30
2019-03-05T20:23:35.080Z,97.40
2019-03-05T20:26:09.322Z,97.40
2019-03-05T20:28:42.661Z,97.50
2019-03-05T20:31:16.620Z,97.40
2019-03-05T20:33:49.992Z,97.40
2019-03-05T20:36:23.731Z,97.40
2019-03-05T20:38:57.210Z,97.20
2019-03-05T20:41:31.764Z,97.30
2019-03-05T20:44:05.103Z,97.20
2019-03-05T20:46:38.636Z,97.30
2019-03-05T20:49:12.667Z,97.40
2019-03-05T20:51:47.206Z,97.40
2019-03-05T20:54:21.309Z,97.40
2019-03-05T20:56:55.626Z,97.30
2019-03-05T20:59:29.700Z,97.40
2019-03-05T21:02:03.570Z,97.30
2019-03-05T21:04:37.373Z,97.40
2019-03-05T21:07:11.538Z,97.50
2019-03-05T21:09:45.690Z,97.40
2019-03-05T21:12:19.346Z,97.40
2019-03-05T21:14:53.476Z,97.50
2019-03-05T21:17:27.419Z,97.50
2019-03-05T21:20:01.387Z,97.50
2019-03-05T21:22:36.367Z,97.50
2019-03-05T21:25:12.505Z,97.50
2019-03-05T21:27:46.941Z,97.50
2019-03-05T21:30:23.836Z,97.40
2019-03-05T21:32:57.921Z,97.50
2019-03-05T21:35:31.333Z,97.60
2019-03-05T21:38:05.378Z,97.60
2019-03-05T21:40:39.209Z,97.50
2019-03-05T21:43:14.278Z,97.50
2019-03-05T21:45:49.726Z,97.50
2019-03-05T21:48:23.408Z,97.50
2019-03-05T21:50:57.738Z,97.50
2019-03-05T21:53:31.804Z,97.40
2019-03-05T21:56:05.610Z,97.40
2019-03-05T21:58:39.967Z,97.40
2019-03-05T22:01:13.306Z,97.40
2019-03-05T22:03:47.373Z,97.50
2019-03-05T22:06:20.792Z,97.50
2019-03-05T22:08:54.112Z,97.50
2019-03-05T22:11:28.211Z,97.40
2019-03-05T22:14:02.421Z,97.40
2019-03-05T22:16:36.557Z,97.40
2019-03-05T22:19:10.135Z,97.40
2019-03-05T22:21:43.586Z,97.30
2019-03-05T22:24:18.017Z,97.40
2019-03-05T22:26:52.147Z,97.50
2019-03-05T22:29:26.289Z,97.60
2019-03-05T22:32:00.235Z,97.60
2019-03-05T22:34:34.809Z,97.70
2019-03-05T22:37:08.960Z,97.10
2019-03-05T22:39:43.157Z,97.20
2019-03-05T22:42:17.403Z,97.60
2019-03-05T22:44:51.485Z,97.60
2019-03-05T22:47:25.411Z,97.80
2019-03-05T22:50:00.103Z,97.40
2019-03-05T22:52:34.234Z,97.60
2019-03-05T22:55:09.181Z,97.70
2019-03-05T22:57:42.766Z,97.60
2019-03-05T23:00:26.078Z,97.70
2019-03-05T23:03:01.486Z,97.50
2019-03-05T23:05:36.041Z,97.70
2019-03-05T23:08:11.401Z,97.90
2019-03-05T23:10:45.614Z,97.90
2019-03-05T23:13:21.131Z,97.90
2019-03-05T23:15:55.859Z,97.60
2019-03-05T23:18:29.890Z,97.60
2019-03-05T23:21:03.335Z,97.80
2019-03-05T23:23:37.788Z,97.90
2019-03-05T23:26:12.715Z,98.00
2019-03-05T23:28:46.570Z,98.10
2019-03-05T23:31:20.599Z,98.00
2019-03-05T23:33:54.337Z,98.10
2019-03-05T23:36:28.268Z,97.90
2019-03-05T23:39:02.121Z,98.10
2019-03-05T23:41:36.857Z,98.10
2019-03-05T23:44:10.720Z,98.20
2019-03-05T23:46:43.966Z,98.20
2019-03-05T23:49:18.288Z,98.10
2019-03-05T23:51:51.676Z,98.20
2019-03-05T23:54:26.049Z,98.10
2019-03-05T23:56:59.973Z,98.10
2019-03-05T23:59:34.006Z,98.10
